Terminal Aerodrome Forecast
Issued by NWS

Home | Current Version | Previous Version | Text Only | Print | Product List | Glossary On
Versions: 1 2 3 4 5 6 7 8 9 10 11 12 13
319
FTUS43 KMPX 201926 AAA
TAFRNH
TAF AMD
KRNH 201926Z 2019/2118 14010KT 2SM -RA BR BKN007 OVC015
     FM202200 17011KT 2SM -RA BR BKN007 OVC012
     FM210100 22008KT 5SM BR VCSH BKN012 OVC025
     FM210400 28009KT P6SM BKN015
     FM211000 23003KT 4SM BR SCT015
     FM211400 18008KT P6SM SCT250=

USA.gov is the U.S. government's official web portal to all federal, state and local government web resources and services.